sensor_id;sensor_type;location;lat;lon;timestamp;pressure;altitude;pressure_sealevel;temperature;humidity
20955;BME280;10636;19.390;-99.256;2022-09-09T00:01:00;77654.91;;;24.62;47.29
20955;BME280;10636;19.390;-99.256;2022-09-09T00:03:39;77652.78;;;24.59;46.82
20955;BME280;10636;19.390;-99.256;2022-09-09T00:06:16;77650.81;;;24.59;47.44
20955;BME280;10636;19.390;-99.256;2022-09-09T00:08:57;77652.13;;;24.58;46.92
20955;BME280;10636;19.390;-99.256;2022-09-09T00:11:34;77648.75;;;24.58;46.93
20955;BME280;10636;19.390;-99.256;2022-09-09T00:14:12;77645.28;;;24.55;46.71
20955;BME280;10636;19.390;-99.256;2022-09-09T00:16:45;77656.03;;;24.55;47.40
20955;BME280;10636;19.390;-99.256;2022-09-09T00:19:22;77666.06;;;24.55;47.54
20955;BME280;10636;19.390;-99.256;2022-09-09T00:22:01;77655.88;;;24.51;47.15
20955;BME280;10636;19.390;-99.256;2022-09-09T00:24:38;77669.22;;;24.49;47.11
20955;BME280;10636;19.390;-99.256;2022-09-09T00:27:16;77669.22;;;24.49;47.17
20955;BME280;10636;19.390;-99.256;2022-09-09T00:29:53;77674.59;;;24.49;46.63
20955;BME280;10636;19.390;-99.256;2022-09-09T00:32:22;77671.13;;;24.46;47.12
20955;BME280;10636;19.390;-99.256;2022-09-09T00:35:03;77681.16;;;24.46;47.29
20955;BME280;10636;19.390;-99.256;2022-09-09T00:37:43;77679.78;;;24.45;47.10
20955;BME280;10636;19.390;-99.256;2022-09-09T00:40:22;77677.06;;;24.43;47.34
20955;BME280;10636;19.390;-99.256;2022-09-09T00:43:00;77661.81;;;24.30;47.21
20955;BME280;10636;19.390;-99.256;2022-09-09T00:46:05;77689.69;;;24.40;47.82
20955;BME280;10636;19.390;-99.256;2022-09-09T00:48:45;77678.03;;;24.34;47.94
20955;BME280;10636;19.390;-99.256;2022-09-09T00:51:25;77680.22;;;24.37;47.67
20955;BME280;10636;19.390;-99.256;2022-09-09T00:54:19;77687.63;;;24.39;48.25
20955;BME280;10636;19.390;-99.256;2022-09-09T00:56:57;77680.72;;;24.34;48.37
20955;BME280;10636;19.390;-99.256;2022-09-09T00:59:40;77693.53;;;24.35;48.15
20955;BME280;10636;19.390;-99.256;2022-09-09T01:02:19;77696.34;;;24.39;48.18
20955;BME280;10636;19.390;-99.256;2022-09-09T01:04:51;77690.38;;;24.41;47.99
20955;BME280;10636;19.390;-99.256;2022-09-09T01:07:21;77694.31;;;24.38;47.68
20955;BME280;10636;19.390;-99.256;2022-09-09T01:09:54;77693.44;;;24.33;48.19
20955;BME280;10636;19.390;-99.256;2022-09-09T01:12:28;77700.03;;;24.30;47.83
20955;BME280;10636;19.390;-99.256;2022-09-09T01:15:07;77703.38;;;24.31;48.01
20955;BME280;10636;19.390;-99.256;2022-09-09T01:17:46;77701.91;;;24.25;48.46
20955;BME280;10636;19.390;-99.256;2022-09-09T01:20:22;77710.69;;;24.28;48.11
20955;BME280;10636;19.390;-99.256;2022-09-09T01:23:17;77710.00;;;24.27;48.13
20955;BME280;10636;19.390;-99.256;2022-09-09T01:26:20;77706.00;;;24.29;48.53
20955;BME280;10636;19.390;-99.256;2022-09-09T01:28:51;77714.03;;;24.29;48.16
20955;BME280;10636;19.390;-99.256;2022-09-09T01:31:23;77708.63;;;24.26;48.54
20955;BME280;10636;19.390;-99.256;2022-09-09T01:33:54;77709.94;;;24.25;47.82
20955;BME280;10636;19.390;-99.256;2022-09-09T01:36:29;77727.28;;;24.24;48.31
20955;BME280;10636;19.390;-99.256;2022-09-09T01:39:02;77715.06;;;24.19;48.58
20955;BME280;10636;19.390;-99.256;2022-09-09T01:41:32;77711.78;;;24.21;48.03
20955;BME280;10636;19.390;-99.256;2022-09-09T01:44:02;77721.09;;;24.20;48.19
20955;BME280;10636;19.390;-99.256;2022-09-09T01:46:31;77718.50;;;24.22;48.61
20955;BME280;10636;19.390;-99.256;2022-09-09T01:58:03;77731.47;;;24.10;48.52
20955;BME280;10636;19.390;-99.256;2022-09-09T02:00:39;77743.56;;;24.11;49.12
20955;BME280;10636;19.390;-99.256;2022-09-09T02:03:16;77742.25;;;24.12;48.63
20955;BME280;10636;19.390;-99.256;2022-09-09T02:05:58;77749.66;;;24.13;48.99
20955;BME280;10636;19.390;-99.256;2022-09-09T02:08:35;77752.44;;;24.15;48.77
20955;BME280;10636;19.390;-99.256;2022-09-09T02:11:08;77757.78;;;24.15;48.41
20955;BME280;10636;19.390;-99.256;2022-09-09T02:16:34;77760.47;;;24.15;48.88
20955;BME280;10636;19.390;-99.256;2022-09-09T02:19:08;77764.38;;;24.12;48.71
20955;BME280;10636;19.390;-99.256;2022-09-09T02:21:42;77772.56;;;24.16;48.75
20955;BME280;10636;19.390;-99.256;2022-09-09T02:24:14;77779.34;;;24.19;48.53
20955;BME280;10636;19.390;-99.256;2022-09-09T02:26:45;77781.97;;;24.17;48.46
20955;BME280;10636;19.390;-99.256;2022-09-09T02:29:20;77781.97;;;24.17;48.23
20955;BME280;10636;19.390;-99.256;2022-09-09T02:31:51;77785.28;;;24.16;48.51
20955;BME280;10636;19.390;-99.256;2022-09-09T02:34:23;77785.88;;;24.14;48.89
20955;BME280;10636;19.390;-99.256;2022-09-09T02:36:54;77788.41;;;24.10;49.08
20955;BME280;10636;19.390;-99.256;2022-09-09T02:39:23;77796.44;;;24.10;48.49
20955;BME280;10636;19.390;-99.256;2022-09-09T02:41:51;77782.06;;;24.02;48.80
20955;BME280;10636;19.390;-99.256;2022-09-09T02:44:22;77787.63;;;24.08;48.86
20955;BME280;10636;19.390;-99.256;2022-09-09T02:47:12;77786.88;;;24.05;49.03
20955;BME280;10636;19.390;-99.256;2022-09-09T02:49:54;77786.19;;;24.05;48.54
20955;BME280;10636;19.390;-99.256;2022-09-09T02:52:30;77797.44;;;24.01;48.88
20955;BME280;10636;19.390;-99.256;2022-09-09T02:55:09;77797.50;;;24.03;48.16
20955;BME280;10636;19.390;-99.256;2022-09-09T02:57:41;77800.88;;;24.04;48.52
20955;BME280;10636;19.390;-99.256;2022-09-09T03:00:14;77802.78;;;24.01;48.60
20955;BME280;10636;19.390;-99.256;2022-09-09T03:02:42;77815.56;;;24.03;48.35
20955;BME280;10636;19.390;-99.256;2022-09-09T03:05:11;77825.59;;;24.02;48.86
20955;BME280;10636;19.390;-99.256;2022-09-09T03:07:40;77822.75;;;23.98;48.98
20955;BME280;10636;19.390;-99.256;2022-09-09T03:10:08;77828.06;;;23.96;48.99
20955;BME280;10636;19.390;-99.256;2022-09-09T03:12:37;77827.38;;;23.95;49.09
20955;BME280;10636;19.390;-99.256;2022-09-09T03:15:07;77830.03;;;23.95;48.54
20955;BME280;10636;19.390;-99.256;2022-09-09T03:17:37;77829.34;;;23.95;49.14
20955;BME280;10636;19.390;-99.256;2022-09-09T03:20:07;77841.38;;;23.94;49.07
20955;BME280;10636;19.390;-99.256;2022-09-09T03:22:35;77848.09;;;23.95;49.04
20955;BME280;10636;19.390;-99.256;2022-09-09T03:25:05;77852.09;;;23.94;48.84
20955;BME280;10636;19.390;-99.256;2022-09-09T03:27:33;77855.47;;;23.94;49.13
20955;BME280;10636;19.390;-99.256;2022-09-09T03:30:02;77856.72;;;23.93;48.95
20955;BME280;10636;19.390;-99.256;2022-09-09T03:32:31;77858.13;;;23.94;49.21
20955;BME280;10636;19.390;-99.256;2022-09-09T03:35:01;77858.03;;;23.92;49.48
20955;BME280;10636;19.390;-99.256;2022-09-09T03:37:29;77861.41;;;23.93;49.62
20955;BME280;10636;19.390;-99.256;2022-09-09T03:39:58;77860.03;;;23.92;49.57
20955;BME280;10636;19.390;-99.256;2022-09-09T03:42:26;77861.78;;;23.85;48.99
20955;BME280;10636;19.390;-99.256;2022-09-09T03:44:55;77865.22;;;23.88;49.03
20955;BME280;10636;19.390;-99.256;2022-09-09T03:47:24;77869.22;;;23.87;48.95
20955;BME280;10636;19.390;-99.256;2022-09-09T03:49:52;77868.72;;;23.74;49.43
20955;BME280;10636;19.390;-99.256;2022-09-09T03:52:23;77877.69;;;23.81;49.58
20955;BME280;10636;19.390;-99.256;2022-09-09T03:54:52;77882.53;;;23.85;49.31
20955;BME280;10636;19.390;-99.256;2022-09-09T03:57:23;77889.25;;;23.86;49.71
20955;BME280;10636;19.390;-99.256;2022-09-09T03:59:51;77887.25;;;23.86;49.53
20955;BME280;10636;19.390;-99.256;2022-09-09T04:02:20;77887.25;;;23.86;49.45
20955;BME280;10636;19.390;-99.256;2022-09-09T04:04:49;77892.78;;;23.90;49.66
20955;BME280;10636;19.390;-99.256;2022-09-09T04:07:17;77887.50;;;23.92;50.11
20955;BME280;10636;19.390;-99.256;2022-09-09T04:09:47;77890.81;;;23.91;49.70
20955;BME280;10636;19.390;-99.256;2022-09-09T04:12:16;77893.53;;;23.93;49.64
20955;BME280;10636;19.390;-99.256;2022-09-09T04:14:44;77888.97;;;23.95;49.31
20955;BME280;10636;19.390;-99.256;2022-09-09T04:17:12;77887.66;;;23.96;49.51
20955;BME280;10636;19.390;-99.256;2022-09-09T04:19:41;77892.41;;;23.98;49.82
20955;BME280;10636;19.390;-99.256;2022-09-09T04:22:10;77895.78;;;23.98;49.57
20955;BME280;10636;19.390;-99.256;2022-09-09T04:24:38;77889.72;;;23.98;50.08
20955;BME280;10636;19.390;-99.256;2022-09-09T04:27:08;77895.09;;;23.98;49.51
20955;BME280;10636;19.390;-99.256;2022-09-09T04:29:37;77887.16;;;24.00;49.38
20955;BME280;10636;19.390;-99.256;2022-09-09T04:32:05;77898.56;;;24.00;49.68
20955;BME280;10636;19.390;-99.256;2022-09-09T04:34:33;77896.47;;;23.99;49.66
20955;BME280;10636;19.390;-99.256;2022-09-09T04:37:02;77895.78;;;23.98;49.40
20955;BME280;10636;19.390;-99.256;2022-09-09T04:39:30;77897.19;;;23.99;49.62
20955;BME280;10636;19.390;-99.256;2022-09-09T04:41:59;77905.13;;;23.97;50.00
20955;BME280;10636;19.390;-99.256;2022-09-09T04:44:29;77892.50;;;24.00;49.95
20955;BME280;10636;19.390;-99.256;2022-09-09T04:46:58;77885.75;;;23.99;49.80
20955;BME280;10636;19.390;-99.256;2022-09-09T04:49:26;77880.38;;;23.99;49.94
20955;BME280;10636;19.390;-99.256;2022-09-09T04:51:56;77871.59;;;23.96;49.77
20955;BME280;10636;19.390;-99.256;2022-09-09T04:54:24;77873.81;;;24.02;49.66
20955;BME280;10636;19.390;-99.256;2022-09-09T04:56:54;77881.09;;;23.99;49.89
20955;BME280;10636;19.390;-99.256;2022-09-09T04:59:22;77872.22;;;23.95;49.86
20955;BME280;10636;19.390;-99.256;2022-09-09T05:01:53;77873.59;;;23.96;50.23
20955;BME280;10636;19.390;-99.256;2022-09-09T05:04:22;77872.44;;;24.01;49.99
20955;BME280;10636;19.390;-99.256;2022-09-09T05:06:50;77869.78;;;24.01;49.60
20955;BME280;10636;19.390;-99.256;2022-09-09T05:09:18;77868.41;;;24.00;49.67
20955;BME280;10636;19.390;-99.256;2022-09-09T05:11:47;77883.06;;;23.99;49.92
20955;BME280;10636;19.390;-99.256;2022-09-09T05:14:15;77879.69;;;23.98;49.63
20955;BME280;10636;19.390;-99.256;2022-09-09T05:16:45;77878.44;;;23.99;50.15
20955;BME280;10636;19.390;-99.256;2022-09-09T05:19:15;77887.84;;;24.00;49.65
20955;BME280;10636;19.390;-99.256;2022-09-09T05:21:45;77887.75;;;23.98;49.56
20955;BME280;10636;19.390;-99.256;2022-09-09T05:24:13;77879.00;;;23.98;49.49
20955;BME280;10636;19.390;-99.256;2022-09-09T05:26:42;77877.63;;;23.97;49.81
20955;BME280;10636;19.390;-99.256;2022-09-09T05:29:10;77880.25;;;23.95;49.74
20955;BME280;10636;19.390;-99.256;2022-09-09T05:31:39;77877.63;;;23.97;50.06
20955;BME280;10636;19.390;-99.256;2022-09-09T05:34:07;77878.31;;;23.97;49.49
20955;BME280;10636;19.390;-99.256;2022-09-09T05:36:37;77866.75;;;23.93;49.75
20955;BME280;10636;19.390;-99.256;2022-09-09T05:39:06;77874.28;;;23.96;49.97
20955;BME280;10636;19.390;-99.256;2022-09-09T05:41:34;77872.28;;;23.97;49.36
20955;BME280;10636;19.390;-99.256;2022-09-09T05:44:03;77870.22;;;23.95;49.78
20955;BME280;10636;19.390;-99.256;2022-09-09T05:46:32;77869.59;;;23.97;49.60
20955;BME280;10636;19.390;-99.256;2022-09-09T05:49:02;77870.97;;;23.98;49.29
20955;BME280;10636;19.390;-99.256;2022-09-09T05:51:31;77870.97;;;23.98;49.25
20955;BME280;10636;19.390;-99.256;2022-09-09T05:54:02;77879.00;;;23.98;49.21
20955;BME280;10636;19.390;-99.256;2022-09-09T05:56:30;77877.63;;;23.97;49.26
20955;BME280;10636;19.390;-99.256;2022-09-09T05:58:59;77872.28;;;23.97;49.98
20955;BME280;10636;19.390;-99.256;2022-09-09T06:01:30;77876.19;;;23.94;49.82
20955;BME280;10636;19.390;-99.256;2022-09-09T06:03:59;77871.97;;;23.89;49.83
20955;BME280;10636;19.390;-99.256;2022-09-09T06:06:31;77879.63;;;23.96;49.24
20955;BME280;10636;19.390;-99.256;2022-09-09T06:09:05;77881.56;;;23.94;49.91
20955;BME280;10636;19.390;-99.256;2022-09-09T06:11:36;77881.63;;;23.96;49.55
20955;BME280;10636;19.390;-99.256;2022-09-09T06:14:05;77874.22;;;23.94;49.31
20955;BME280;10636;19.390;-99.256;2022-09-09T06:16:37;77873.53;;;23.94;49.87
20955;BME280;10636;19.390;-99.256;2022-09-09T06:19:05;77867.53;;;23.95;49.79
20955;BME280;10636;19.390;-99.256;2022-09-09T06:21:35;77866.84;;;23.95;49.93
20955;BME280;10636;19.390;-99.256;2022-09-09T06:24:06;77862.19;;;23.95;49.39
20955;BME280;10636;19.390;-99.256;2022-09-09T06:26:36;77862.19;;;23.95;49.22
20955;BME280;10636;19.390;-99.256;2022-09-09T06:29:07;77860.19;;;23.96;49.92
20955;BME280;10636;19.390;-99.256;2022-09-09T06:31:36;77861.41;;;23.93;49.95
20955;BME280;10636;19.390;-99.256;2022-09-09T06:34:06;77861.41;;;23.93;49.92
20955;BME280;10636;19.390;-99.256;2022-09-09T06:36:35;77862.81;;;23.94;49.91
20955;BME280;10636;19.390;-99.256;2022-09-09T06:39:06;77856.72;;;23.93;49.71
20955;BME280;10636;19.390;-99.256;2022-09-09T06:41:37;77852.00;;;23.92;49.72
20955;BME280;10636;19.390;-99.256;2022-09-09T06:44:06;77847.94;;;23.91;50.05
20955;BME280;10636;19.390;-99.256;2022-09-09T06:46:35;77849.94;;;23.90;49.44
20955;BME280;10636;19.390;-99.256;2022-09-09T06:49:04;77852.00;;;23.92;49.50
20955;BME280;10636;19.390;-99.256;2022-09-09T06:51:35;77853.22;;;23.89;49.83
20955;BME280;10636;19.390;-99.256;2022-09-09T06:54:05;77845.25;;;23.91;49.86
20955;BME280;10636;19.390;-99.256;2022-09-09T06:56:35;77842.41;;;23.87;49.83
20955;BME280;10636;19.390;-99.256;2022-09-09T06:59:04;77841.03;;;23.86;49.57
20955;BME280;10636;19.390;-99.256;2022-09-09T07:01:35;77831.72;;;23.87;49.41
20955;BME280;10636;19.390;-99.256;2022-09-09T07:04:04;77833.78;;;23.88;49.30
20955;BME280;10636;19.390;-99.256;2022-09-09T07:06:36;77837.06;;;23.87;49.39
20955;BME280;10636;19.390;-99.256;2022-09-09T07:09:08;77839.75;;;23.87;49.36
20955;BME280;10636;19.390;-99.256;2022-09-09T07:11:39;77834.16;;;23.81;49.17
20955;BME280;10636;19.390;-99.256;2022-09-09T07:14:09;77835.00;;;23.85;49.66
20955;BME280;10636;19.390;-99.256;2022-09-09T07:16:39;77836.31;;;23.84;49.98
20955;BME280;10636;19.390;-99.256;2022-09-09T07:19:08;77834.38;;;23.87;49.50
20955;BME280;10636;19.390;-99.256;2022-09-09T07:21:37;77834.31;;;23.85;50.04
20955;BME280;10636;19.390;-99.256;2022-09-09T07:24:08;77832.94;;;23.84;50.00
20955;BME280;10636;19.390;-99.256;2022-09-09T07:26:37;77822.75;;;23.80;49.66
20955;BME280;10636;19.390;-99.256;2022-09-09T07:29:06;77826.28;;;23.85;49.41
20955;BME280;10636;19.390;-99.256;2022-09-09T07:31:38;77816.94;;;23.86;49.23
20955;BME280;10636;19.390;-99.256;2022-09-09T07:34:07;77826.34;;;23.87;49.60
20955;BME280;10636;19.390;-99.256;2022-09-09T07:36:36;77815.56;;;23.85;49.48
20955;BME280;10636;19.390;-99.256;2022-09-09T07:39:08;77821.63;;;23.85;49.26
20955;BME280;10636;19.390;-99.256;2022-09-09T07:41:40;77816.25;;;23.85;49.55
20955;BME280;10636;19.390;-99.256;2022-09-09T07:44:10;77812.97;;;23.87;49.44
20955;BME280;10636;19.390;-99.256;2022-09-09T07:46:39;77811.59;;;23.86;50.03
20955;BME280;10636;19.390;-99.256;2022-09-09T07:49:09;77803.41;;;23.82;49.93
20955;BME280;10636;19.390;-99.256;2022-09-09T07:51:40;77806.16;;;23.84;49.91
20955;BME280;10636;19.390;-99.256;2022-09-09T07:54:13;77800.09;;;23.83;49.62
20955;BME280;10636;19.390;-99.256;2022-09-09T07:56:42;77802.78;;;23.83;50.10
20955;BME280;10636;19.390;-99.256;2022-09-09T07:59:10;77800.09;;;23.83;49.78
20955;BME280;10636;19.390;-99.256;2022-09-09T08:01:40;77801.41;;;23.82;49.97
20955;BME280;10636;19.390;-99.256;2022-09-09T08:04:10;77802.72;;;23.81;49.77
20955;BME280;10636;19.390;-99.256;2022-09-09T08:06:46;77794.66;;;23.81;49.75
20955;BME280;10636;19.390;-99.256;2022-09-09T08:09:16;77792.69;;;23.82;49.58
20955;BME280;10636;19.390;-99.256;2022-09-09T08:11:45;77794.06;;;23.83;49.54
20955;BME280;10636;19.390;-99.256;2022-09-09T08:14:13;77785.34;;;23.82;49.88
20955;BME280;10636;19.390;-99.256;2022-09-09T08:16:46;77781.97;;;23.82;49.49
20955;BME280;10636;19.390;-99.256;2022-09-09T08:19:15;77781.22;;;23.79;49.76
20955;BME280;10636;19.390;-99.256;2022-09-09T08:21:44;77776.53;;;23.80;49.64
20955;BME280;10636;19.390;-99.256;2022-09-09T08:24:17;77779.22;;;23.80;49.49
20955;BME280;10636;19.390;-99.256;2022-09-09T08:26:47;77774.56;;;23.80;49.42
20955;BME280;10636;19.390;-99.256;2022-09-09T08:29:16;77770.50;;;23.79;49.20
20955;BME280;10636;19.390;-99.256;2022-09-09T08:31:46;77775.16;;;23.79;49.19
20955;BME280;10636;19.390;-99.256;2022-09-09T08:34:16;77764.38;;;23.77;49.06
20955;BME280;10636;19.390;-99.256;2022-09-09T08:36:47;77764.38;;;23.77;49.53
20955;BME280;10636;19.390;-99.256;2022-09-09T08:39:19;77759.00;;;23.77;49.17
20955;BME280;10636;19.390;-99.256;2022-09-09T08:42:31;77753.66;;;23.77;49.34
20955;BME280;10636;19.390;-99.256;2022-09-09T08:45:20;77749.59;;;23.76;49.64
20955;BME280;10636;19.390;-99.256;2022-09-09T08:48:00;77745.56;;;23.74;49.13
20955;BME280;10636;19.390;-99.256;2022-09-09T08:50:35;77750.91;;;23.74;49.06
20955;BME280;10636;19.390;-99.256;2022-09-09T08:53:09;77735.47;;;23.73;49.17
20955;BME280;10636;19.390;-99.256;2022-09-09T08:55:44;77728.13;;;23.73;49.82
20955;BME280;10636;19.390;-99.256;2022-09-09T08:58:17;77711.97;;;23.71;49.25
20955;BME280;10636;19.390;-99.256;2022-09-09T09:01:02;77709.28;;;23.71;49.19
20955;BME280;10636;19.390;-99.256;2022-09-09T09:03:46;77711.22;;;23.69;49.40
20955;BME280;10636;19.390;-99.256;2022-09-09T09:06:25;77706.00;;;23.73;49.06
20955;BME280;10636;19.390;-99.256;2022-09-09T09:09:04;77704.63;;;23.72;49.46
20955;BME280;10636;19.390;-99.256;2022-09-09T09:11:38;77707.97;;;23.72;49.63
20955;BME280;10636;19.390;-99.256;2022-09-09T09:14:11;77715.31;;;23.72;49.89
20955;BME280;10636;19.390;-99.256;2022-09-09T09:16:52;77711.28;;;23.71;48.95
20955;BME280;10636;19.390;-99.256;2022-09-09T09:19:21;77686.72;;;23.59;49.42
20955;BME280;10636;19.390;-99.256;2022-09-09T09:21:57;77700.50;;;23.69;49.23
20955;BME280;10636;19.390;-99.256;2022-09-09T09:24:34;77703.19;;;23.69;49.88
20955;BME280;10636;19.390;-99.256;2022-09-09T09:27:13;77694.47;;;23.68;49.52
20955;BME280;10636;19.390;-99.256;2022-09-09T09:29:43;77697.13;;;23.68;49.43
20955;BME280;10636;19.390;-99.256;2022-09-09T09:32:16;77697.72;;;23.67;49.46
20955;BME280;10636;19.390;-99.256;2022-09-09T09:34:49;77697.72;;;23.67;49.83
20955;BME280;10636;19.390;-99.256;2022-09-09T09:37:26;77699.72;;;23.66;49.72
20955;BME280;10636;19.390;-99.256;2022-09-09T09:39:55;77692.94;;;23.63;49.11
20955;BME280;10636;19.390;-99.256;2022-09-09T09:42:25;77701.66;;;23.64;49.20
20955;BME280;10636;19.390;-99.256;2022-09-09T09:44:53;77695.69;;;23.65;49.11
20955;BME280;10636;19.390;-99.256;2022-09-09T09:47:22;77690.81;;;23.62;49.56
20955;BME280;10636;19.390;-99.256;2022-09-09T09:49:53;77693.00;;;23.65;48.85
20955;BME280;10636;19.390;-99.256;2022-09-09T09:52:24;77694.22;;;23.62;49.17
20955;BME280;10636;19.390;-99.256;2022-09-09T09:54:53;77689.00;;;23.66;49.93
20955;BME280;10636;19.390;-99.256;2022-09-09T09:57:27;77684.28;;;23.65;49.19
20955;BME280;10636;19.390;-99.256;2022-09-09T10:00:12;77690.13;;;23.61;49.76
20955;BME280;10636;19.390;-99.256;2022-09-09T10:02:42;77686.19;;;23.62;49.77
20955;BME280;10636;19.390;-99.256;2022-09-09T10:05:15;77674.06;;;23.61;49.04
20955;BME280;10636;19.390;-99.256;2022-09-09T10:07:44;77680.22;;;23.64;49.26
20955;BME280;10636;19.390;-99.256;2022-09-09T10:10:18;77685.59;;;23.64;49.07
20955;BME280;10636;19.390;-99.256;2022-09-09T10:12:58;77680.13;;;23.62;49.48
20955;BME280;10636;19.390;-99.256;2022-09-09T10:15:38;77684.66;;;23.57;49.59
20955;BME280;10636;19.390;-99.256;2022-09-09T10:18:26;77685.41;;;23.60;49.67
20955;BME280;10636;19.390;-99.256;2022-09-09T10:21:06;77690.06;;;23.59;49.29
20955;BME280;10636;19.390;-99.256;2022-09-09T10:23:51;77680.00;;;23.58;49.35
20955;BME280;10636;19.390;-99.256;2022-09-09T10:26:35;77682.03;;;23.59;48.89
20955;BME280;10636;19.390;-99.256;2022-09-09T10:29:34;77683.41;;;23.60;48.91
20955;BME280;10636;19.390;-99.256;2022-09-09T10:32:24;77695.50;;;23.61;48.90
20955;BME280;10636;19.390;-99.256;2022-09-09T10:35:02;77691.38;;;23.58;48.92
20955;BME280;10636;19.390;-99.256;2022-09-09T10:37:44;77688.59;;;23.56;49.25
20955;BME280;10636;19.390;-99.256;2022-09-09T10:40:24;77695.44;;;23.59;49.55
20955;BME280;10636;19.390;-99.256;2022-09-09T10:43:07;77687.41;;;23.59;49.87
20955;BME280;10636;19.390;-99.256;2022-09-09T10:45:49;77688.09;;;23.60;49.46
20955;BME280;10636;19.390;-99.256;2022-09-09T10:48:33;77687.47;;;23.61;49.16
20955;BME280;10636;19.390;-99.256;2022-09-09T10:51:21;77696.13;;;23.60;49.71
20955;BME280;10636;19.390;-99.256;2022-09-09T10:54:00;77700.72;;;23.57;49.52
20955;BME280;10636;19.390;-99.256;2022-09-09T10:56:38;77694.66;;;23.57;49.84
20955;BME280;10636;19.390;-99.256;2022-09-09T10:59:11;77692.75;;;23.59;49.60
20955;BME280;10636;19.390;-99.256;2022-09-09T11:01:46;77696.72;;;23.58;49.94
20955;BME280;10636;19.390;-99.256;2022-09-09T11:04:22;77691.38;;;23.58;49.14
20955;BME280;10636;19.390;-99.256;2022-09-09T11:06:54;77687.41;;;23.59;49.91
20955;BME280;10636;19.390;-99.256;2022-09-09T11:09:24;77686.03;;;23.58;49.75
20955;BME280;10636;19.390;-99.256;2022-09-09T11:11:55;77689.28;;;23.57;50.07
20955;BME280;10636;19.390;-99.256;2022-09-09T11:14:29;77685.88;;;23.54;49.45
20955;BME280;10636;19.390;-99.256;2022-09-09T11:17:03;77683.03;;;23.50;50.04
20955;BME280;10636;19.390;-99.256;2022-09-09T11:19:34;77688.31;;;23.48;49.49
20955;BME280;10636;19.390;-99.256;2022-09-09T11:22:07;77692.22;;;23.45;49.44
20955;BME280;10636;19.390;-99.256;2022-09-09T11:24:44;77695.56;;;23.45;49.87
20955;BME280;10636;19.390;-99.256;2022-09-09T11:27:17;77694.34;;;23.48;50.28
20955;BME280;10636;19.390;-99.256;2022-09-09T11:30:19;77698.34;;;23.47;49.99
20955;BME280;10636;19.390;-99.256;2022-09-09T11:33:28;77696.25;;;23.46;50.12
20955;BME280;10636;19.390;-99.256;2022-09-09T11:36:13;77699.66;;;23.46;50.21
20955;BME280;10636;19.390;-99.256;2022-09-09T11:38:47;77698.78;;;23.42;50.36
20955;BME280;10636;19.390;-99.256;2022-09-09T11:41:18;77701.31;;;23.38;50.05
20955;BME280;10636;19.390;-99.256;2022-09-09T11:43:49;77709.25;;;23.36;50.04
20955;BME280;10636;19.390;-99.256;2022-09-09T11:46:20;77712.47;;;23.32;50.12
20955;BME280;10636;19.390;-99.256;2022-09-09T11:49:00;77709.00;;;23.30;49.83
20955;BME280;10636;19.390;-99.256;2022-09-09T11:51:31;77704.28;;;23.28;50.28
20955;BME280;10636;19.390;-99.256;2022-09-09T11:54:01;77714.28;;;23.28;50.46
20955;BME280;10636;19.390;-99.256;2022-09-09T11:56:32;77711.63;;;23.28;49.69
20955;BME280;10636;19.390;-99.256;2022-09-09T11:59:02;77714.28;;;23.28;50.28
20955;BME280;10636;19.390;-99.256;2022-09-09T12:01:40;77715.59;;;23.27;50.39
20955;BME280;10636;19.390;-99.256;2022-09-09T12:04:33;77714.13;;;23.23;50.41
20955;BME280;10636;19.390;-99.256;2022-09-09T12:07:21;77718.13;;;23.22;50.40
20955;BME280;10636;19.390;-99.256;2022-09-09T12:09:52;77723.47;;;23.22;50.49
20955;BME280;10636;19.390;-99.256;2022-09-09T12:12:26;77724.75;;;23.21;50.04
20955;BME280;10636;19.390;-99.256;2022-09-09T12:15:00;77722.00;;;23.19;49.65
20955;BME280;10636;19.390;-99.256;2022-09-09T12:17:30;77733.38;;;23.20;49.93
20955;BME280;10636;19.390;-99.256;2022-09-09T12:20:12;77727.97;;;23.18;50.63
20955;BME280;10636;19.390;-99.256;2022-09-09T12:25:51;77741.34;;;23.18;50.20
20955;BME280;10636;19.390;-99.256;2022-09-09T12:28:25;77745.94;;;23.15;50.66
20955;BME280;10636;19.390;-99.256;2022-09-09T12:30:58;77741.84;;;23.14;50.26
20955;BME280;10636;19.390;-99.256;2022-09-09T12:33:35;77745.25;;;23.15;50.38
20955;BME280;10636;19.390;-99.256;2022-09-09T12:36:06;77751.19;;;23.13;50.61
20955;BME280;10636;19.390;-99.256;2022-09-09T12:38:40;77741.16;;;23.14;50.47
20955;BME280;10636;19.390;-99.256;2022-09-09T12:41:19;77748.50;;;23.13;50.03
20955;BME280;10636;19.390;-99.256;2022-09-09T12:43:47;77749.19;;;23.14;50.07
20955;BME280;10636;19.390;-99.256;2022-09-09T12:46:23;77753.19;;;23.13;49.99
20955;BME280;10636;19.390;-99.256;2022-09-09T12:48:56;77756.47;;;23.11;50.74
20955;BME280;10636;19.390;-99.256;2022-09-09T12:51:28;77757.16;;;23.12;50.67
20955;BME280;10636;19.390;-99.256;2022-09-09T12:53:57;77764.50;;;23.11;50.59
20955;BME280;10636;19.390;-99.256;2022-09-09T12:56:28;77761.81;;;23.11;50.69
20955;BME280;10636;19.390;-99.256;2022-09-09T12:58:58;77758.47;;;23.11;50.17
20955;BME280;10636;19.390;-99.256;2022-09-09T13:01:28;77765.88;;;23.12;49.75
20955;BME280;10636;19.390;-99.256;2022-09-09T13:03:57;77756.38;;;23.09;50.70
20955;BME280;10636;19.390;-99.256;2022-09-09T13:06:29;77762.50;;;23.12;50.58
20955;BME280;10636;19.390;-99.256;2022-09-09T13:08:59;77763.19;;;23.12;50.55
20955;BME280;10636;19.390;-99.256;2022-09-09T13:11:31;77759.22;;;23.13;50.54
20955;BME280;10636;19.390;-99.256;2022-09-09T13:14:04;77766.66;;;23.15;49.87
20955;BME280;10636;19.390;-99.256;2022-09-09T13:16:35;77771.28;;;23.14;50.28
20955;BME280;10636;19.390;-99.256;2022-09-09T13:19:09;77772.00;;;23.15;50.04
20955;BME280;10636;19.390;-99.256;2022-09-09T13:21:43;77771.91;;;23.13;50.62
20955;BME280;10636;19.390;-99.256;2022-09-09T13:24:25;77762.44;;;23.10;50.50
20955;BME280;10636;19.390;-99.256;2022-09-09T13:26:56;77766.66;;;23.15;50.28